logo
Search for airport 
image banner adimage banner adimage banner ad
image banner ad

SJ2C - Tarcísio Rosado

Located in Tibau, Brazil

ICAO - SJ2C, IATA -

Data provided by Airmate  

General information

Coordinates: S4°51'48" W37°15'4"
Elevation is 13 feet MSL.
 
View others Airports in Ceará

Operational data

Special qualification required
Current time UTC:
Current local time:
Weather at : SBMS - Dix-Sept Rosado ( 39 km )
METAR: SBMS 131400Z 11008KT 9999 BKN030 31/25 Q1011
View NOTAMs / SUP AIP / TFR affecting this airport [VIEW]
Communications frequencies: [VIEW]

Runways:

RWY identifierQFULength (ft)Width (ft)SurfaceLDA (ft)
10229759OTHER:PIÇ
28229759OTHER:PIÇ

Airport contact information

Address: Tibau Brazil

Satellite view of SJ2C